createdAt,value
2023-04-13T00:02:17.821Z,11.50
2023-04-13T00:07:19.812Z,11.40
2023-04-13T00:12:21.519Z,11.40
2023-04-13T00:17:25.161Z,11.40
2023-04-13T00:22:30.017Z,11.40
2023-04-13T00:27:31.905Z,11.40
2023-04-13T00:32:33.953Z,11.40
2023-04-13T00:37:36.012Z,11.40
2023-04-13T00:42:38.067Z,11.40
2023-04-13T00:47:41.958Z,11.30
2023-04-13T00:52:44.818Z,11.40
2023-04-13T00:57:50.097Z,11.30
2023-04-13T01:02:53.700Z,11.20
2023-04-13T01:07:58.403Z,11.60
2023-04-13T01:13:21.330Z,11.80
2023-04-13T01:18:26.236Z,11.60
2023-04-13T01:23:40.091Z,11.50
2023-04-13T01:28:42.827Z,11.50
2023-04-13T01:33:45.348Z,11.60
2023-04-13T01:38:47.297Z,11.60
2023-04-13T01:43:49.085Z,11.80
2023-04-13T01:48:56.305Z,11.90
2023-04-13T01:54:04.678Z,11.80
2023-04-13T01:59:07.377Z,11.70
2023-04-13T02:04:10.036Z,11.60
2023-04-13T02:09:11.849Z,11.40
2023-04-13T02:14:13.661Z,11.30
2023-04-13T02:19:15.548Z,11.30
2023-04-13T02:24:17.281Z,11.20
2023-04-13T02:29:19.095Z,11.10
2023-04-13T02:34:20.933Z,11.30
2023-04-13T02:39:22.673Z,11.30
2023-04-13T02:44:24.399Z,11.20
2023-04-13T02:49:26.153Z,11.20
2023-04-13T02:54:28.498Z,11.10
2023-04-13T02:59:30.253Z,11.10
2023-04-13T03:04:32.381Z,11.00
2023-04-13T03:09:34.505Z,10.90
2023-04-13T03:14:37.109Z,10.90
2023-04-13T03:19:39.224Z,10.80
2023-04-13T03:24:41.336Z,10.80
2023-04-13T03:29:43.051Z,10.80
2023-04-13T03:34:44.849Z,10.80
2023-04-13T03:39:46.856Z,10.80
2023-04-13T03:44:48.575Z,10.80
2023-04-13T03:49:50.359Z,10.80
2023-04-13T03:54:52.428Z,10.80
2023-04-13T03:59:54.277Z,10.70
2023-04-13T04:04:56.158Z,10.80
2023-04-13T04:09:57.880Z,10.80
2023-04-13T04:14:59.641Z,11.00
2023-04-13T04:20:01.675Z,11.10
2023-04-13T04:25:04.591Z,11.20
2023-04-13T04:30:07.143Z,11.20
2023-04-13T04:35:12.130Z,11.40
2023-04-13T04:40:14.120Z,11.60
2023-04-13T04:45:16.692Z,11.70
2023-04-13T04:50:18.502Z,11.80
2023-04-13T04:55:20.356Z,11.80
2023-04-13T05:00:22.554Z,12.00
2023-04-13T05:05:27.548Z,11.90
2023-04-13T05:10:30.088Z,12.00
2023-04-13T05:15:31.827Z,11.90
2023-04-13T05:20:34.985Z,12.00
2023-04-13T05:25:37.044Z,12.00
2023-04-13T05:30:38.857Z,12.10
2023-04-13T05:35:41.086Z,12.20
2023-04-13T05:40:42.898Z,12.40
2023-04-13T05:45:44.690Z,12.50
2023-04-13T05:50:46.545Z,12.60
2023-04-13T05:55:48.583Z,12.60
2023-04-13T06:00:50.711Z,12.60
2023-04-13T06:05:52.996Z,12.70
2023-04-13T06:10:54.788Z,12.80
2023-04-13T06:15:57.502Z,12.80
2023-04-13T06:20:59.793Z,12.80
2023-04-13T06:26:03.180Z,12.90
2023-04-13T06:31:07.516Z,13.10
2023-04-13T06:36:09.669Z,13.50
2023-04-13T06:41:11.549Z,13.60
2023-04-13T06:46:14.521Z,13.60
2023-04-13T06:51:16.459Z,13.50
2023-04-13T06:56:18.441Z,13.60
2023-04-13T07:01:20.942Z,13.70
2023-04-13T07:06:23.239Z,14.20
2023-04-13T07:11:27.856Z,14.10
2023-04-13T07:16:29.836Z,13.90
2023-04-13T07:21:33.557Z,13.90
2023-04-13T07:26:35.429Z,14.00
2023-04-13T07:31:37.710Z,14.20
2023-04-13T07:36:41.033Z,14.00
2023-04-13T07:41:42.941Z,13.90
2023-04-13T07:46:44.820Z,13.80
2023-04-13T07:51:46.576Z,13.90
2023-04-13T07:56:48.364Z,13.90
2023-04-13T08:01:50.173Z,13.90
2023-04-13T08:06:52.281Z,13.60
2023-04-13T08:11:54.322Z,13.40
2023-04-13T08:16:56.576Z,13.80
2023-04-13T08:21:59.399Z,13.80
2023-04-13T08:27:01.233Z,14.10
2023-04-13T08:32:03.605Z,14.10
2023-04-13T08:37:05.385Z,14.30
2023-04-13T08:42:07.652Z,14.30
2023-04-13T08:47:10.918Z,14.30
2023-04-13T08:52:15.743Z,14.40
2023-04-13T08:57:21.105Z,14.50
2023-04-13T09:02:28.360Z,14.60
2023-04-13T09:07:32.463Z,14.60
2023-04-13T09:12:35.012Z,14.50
2023-04-13T09:17:37.582Z,14.80
2023-04-13T09:22:39.410Z,14.70
2023-04-13T09:27:41.118Z,14.80
2023-04-13T09:32:42.855Z,15.20
2023-04-13T09:37:44.834Z,15.00
2023-04-13T09:42:58.836Z,14.80
2023-04-13T09:48:03.165Z,15.20
2023-04-13T09:53:06.468Z,15.50
2023-04-13T09:58:12.845Z,15.80
2023-04-13T10:03:16.372Z,15.60
2023-04-13T10:08:27.314Z,15.90
2023-04-13T10:13:45.874Z,16.50
2023-04-13T10:18:57.924Z,16.40
2023-04-13T10:24:00.451Z,17.00
2023-04-13T10:29:03.714Z,16.90
2023-04-13T10:34:07.019Z,16.90
2023-04-13T10:39:11.858Z,16.90
2023-04-13T10:44:13.603Z,17.40
2023-04-13T10:49:15.723Z,17.50
2023-04-13T10:54:17.588Z,17.90
2023-04-13T10:59:19.331Z,17.40
2023-04-13T11:04:22.870Z,17.70
2023-04-13T11:09:24.680Z,17.70
2023-04-13T11:14:26.408Z,17.30
2023-04-13T11:19:28.238Z,17.10
2023-04-13T11:24:34.369Z,17.20
2023-04-13T11:29:36.143Z,17.20
2023-04-13T11:34:37.920Z,17.10
2023-04-13T11:39:41.829Z,17.10
2023-04-13T11:44:45.811Z,17.40
2023-04-13T11:49:47.884Z,17.80
2023-04-13T11:54:51.013Z,18.20
2023-04-13T11:59:53.039Z,17.60
2023-04-13T12:04:55.959Z,17.80
2023-04-13T12:10:00.937Z,18.00
2023-04-13T12:20:16.470Z,17.80
2023-04-13T12:25:24.527Z,17.60
2023-04-13T12:30:27.823Z,17.20
2023-04-13T12:35:29.629Z,16.90
2023-04-13T12:40:31.625Z,16.70
2023-04-13T12:45:33.380Z,16.20
2023-04-13T12:50:35.296Z,16.60
2023-04-13T12:55:37.405Z,16.80
2023-04-13T13:00:39.300Z,16.70
2023-04-13T13:05:41.935Z,16.50
2023-04-13T13:10:43.929Z,16.20
2023-04-13T13:15:45.793Z,15.90
2023-04-13T13:20:49.310Z,15.60
2023-04-13T13:26:07.711Z,15.60
2023-04-13T13:31:13.544Z,15.40
2023-04-13T13:36:15.616Z,15.30
2023-04-13T13:41:17.507Z,15.40
2023-04-13T13:46:19.452Z,15.50
2023-04-13T13:51:21.525Z,15.60
2023-04-13T13:56:23.322Z,15.70
2023-04-13T14:01:25.229Z,15.70
2023-04-13T14:06:27.814Z,15.50
2023-04-13T14:11:29.972Z,15.10
2023-04-13T14:16:32.035Z,15.20
2023-04-13T14:21:34.067Z,15.20
2023-04-13T14:26:38.262Z,15.20
2023-04-13T14:31:40.141Z,15.20
2023-04-13T14:36:42.565Z,15.20
2023-04-13T14:41:44.984Z,15.50
2023-04-13T14:46:46.921Z,15.30
2023-04-13T14:51:48.633Z,15.50
2023-04-13T14:56:50.334Z,15.60
2023-04-13T15:01:52.189Z,15.70
2023-04-13T15:06:54.393Z,15.50
2023-04-13T15:11:56.442Z,15.30
2023-04-13T15:16:58.213Z,15.30
2023-04-13T15:22:00.150Z,15.30
2023-04-13T15:27:02.115Z,15.10
2023-04-13T15:32:04.086Z,15.00
2023-04-13T15:37:06.179Z,14.80
2023-04-13T15:42:08.126Z,14.70
2023-04-13T15:47:10.016Z,14.70
2023-04-13T15:52:11.899Z,14.50
2023-04-13T15:57:14.996Z,14.50
2023-04-13T16:02:17.022Z,14.40
2023-04-13T16:07:20.076Z,14.30
2023-04-13T16:12:33.143Z,14.30
2023-04-13T16:17:35.056Z,14.20
2023-04-13T16:22:37.584Z,14.20
2023-04-13T16:27:40.286Z,14.10
2023-04-13T16:32:43.306Z,14.10
2023-04-13T16:37:45.292Z,14.10
2023-04-13T16:42:47.094Z,14.10
2023-04-13T16:47:50.029Z,14.00
2023-04-13T16:52:51.842Z,14.00
2023-04-13T16:57:53.885Z,14.00
2023-04-13T17:02:55.953Z,13.90
2023-04-13T17:07:57.962Z,13.90
2023-04-13T17:12:59.673Z,13.90
2023-04-13T17:18:01.473Z,13.80
2023-04-13T17:23:03.280Z,13.70
2023-04-13T17:28:05.176Z,13.70
2023-04-13T17:33:07.107Z,13.60
2023-04-13T17:38:08.847Z,13.50
2023-04-13T17:43:10.870Z,13.50
2023-04-13T17:48:12.645Z,13.60
2023-04-13T17:53:14.325Z,13.60
2023-04-13T17:58:16.077Z,13.50
2023-04-13T18:03:18.059Z,13.40
2023-04-13T18:08:20.045Z,13.40
2023-04-13T18:13:22.134Z,13.40
2023-04-13T18:18:24.479Z,13.40
2023-04-13T18:23:26.291Z,13.30
2023-04-13T18:28:29.780Z,13.20
2023-04-13T18:33:31.853Z,13.10
2023-04-13T18:38:34.095Z,13.00
2023-04-13T18:43:35.912Z,12.90
2023-04-13T18:48:37.745Z,12.80
2023-04-13T18:53:39.476Z,12.50
2023-04-13T18:58:41.247Z,12.30
2023-04-13T19:03:44.179Z,12.10
2023-04-13T19:08:46.208Z,11.90
2023-04-13T19:13:48.181Z,11.60
2023-04-13T19:18:49.961Z,11.10
2023-04-13T19:23:51.802Z,10.60
2023-04-13T19:28:56.110Z,10.40
2023-04-13T19:33:57.922Z,10.30
2023-04-13T19:39:08.666Z,10.30
2023-04-13T19:44:10.377Z,10.40
2023-04-13T19:49:13.596Z,10.60
2023-04-13T19:54:15.297Z,10.90
2023-04-13T19:59:17.664Z,10.90
2023-04-13T20:04:19.745Z,10.70
2023-04-13T20:09:21.520Z,10.90
2023-04-13T20:14:23.382Z,10.70
2023-04-13T20:19:25.780Z,10.70
2023-04-13T20:24:27.593Z,10.60
2023-04-13T20:29:29.447Z,10.80
2023-04-13T20:34:31.243Z,11.10
2023-04-13T20:39:32.969Z,11.20
2023-04-13T20:44:38.230Z,11.40
2023-04-13T20:49:47.849Z,11.40
2023-04-13T20:54:51.040Z,11.50
2023-04-13T20:59:52.864Z,11.50
2023-04-13T21:04:56.582Z,11.60
2023-04-13T21:09:58.392Z,11.70
2023-04-13T21:15:00.187Z,11.70
2023-04-13T21:20:02.136Z,11.50
2023-04-13T21:25:05.122Z,11.50
2023-04-13T21:30:07.650Z,11.40
2023-04-13T21:35:10.046Z,11.20
2023-04-13T21:40:11.923Z,11.10
2023-04-13T21:45:13.707Z,11.20
2023-04-13T21:50:15.631Z,11.40
2023-04-13T21:55:20.364Z,11.20
2023-04-13T22:00:22.459Z,11.20
2023-04-13T22:05:24.226Z,11.00
2023-04-13T22:10:26.052Z,11.00
2023-04-13T22:15:27.933Z,11.00
2023-04-13T22:20:29.957Z,11.10
2023-04-13T22:25:31.710Z,11.20
2023-04-13T22:30:35.900Z,11.20
2023-04-13T22:35:37.637Z,11.10
2023-04-13T22:40:39.649Z,10.70
2023-04-13T22:45:41.443Z,10.40
2023-04-13T22:50:43.152Z,10.00
2023-04-13T22:55:45.093Z,9.90
2023-04-13T23:00:46.918Z,9.80
2023-04-13T23:05:49.066Z,9.70
2023-04-13T23:10:50.861Z,9.60
2023-04-13T23:16:00.602Z,9.60
2023-04-13T23:21:12.586Z,9.60
2023-04-13T23:26:14.578Z,9.50
2023-04-13T23:31:16.826Z,9.60
2023-04-13T23:36:18.981Z,10.00
2023-04-13T23:41:21.171Z,10.20
2023-04-13T23:46:23.678Z,10.40
2023-04-13T23:51:25.536Z,10.60
2023-04-13T23:56:27.456Z,10.50
